Create Tblcommutelog Verified Points Advance Search
| # | Trip ID | Id Commuter | Trip Date | Trip Num | Current Lat | Current Lng | Delta Distance | Current Time | Activity | Activity Confidence | Current Speed | |
|---|---|---|---|---|---|---|---|---|---|---|---|---|
| 71541 | 250904_788308_16656907_1307 | 788308 | (not set) | (not set) | 39.154678544424 | -78.165198099899 | 40.8877 | 2025-09-04 13:50:24 | in_vehicle | 100 | 13.607875043586 | |
| 71542 | 250904_788308_16656907_1307 | 788308 | (not set) | (not set) | 39.127317499765 | -78.185861493556 | 43.0934 | 2025-09-04 13:52:24 | in_vehicle | 100 | 13.549759939918 | |
| 71543 | 250904_788308_16656907_1307 | 788308 | (not set) | (not set) | 39.099139665245 | -78.205077283442 | 45.3083 | 2025-09-04 13:54:31 | in_vehicle | 100 | 10.313195704847 | |
| 71544 | 250904_616654_16456749_1309 | 616654 | (not set) | (not set) | 38.794630419061 | -77.25884295335 | 18.6841 | 2025-09-04 13:56:35 | in_vehicle | 100 | 1.5601670138672 | |
| 71545 | 250904_788308_16656907_1307 | 788308 | (not set) | (not set) | 39.045492252865 | -78.25018746098 | 49.7793 | 2025-09-04 13:59:04 | in_vehicle | 100 | 11.900185074253 | |
| 71546 | 250904_788308_16656907_1307 | 788308 | (not set) | (not set) | 39.021645532495 | -78.280143584411 | 52.0915 | 2025-09-04 14:01:12 | in_vehicle | 100 | 14.059384695164 | |
| 71547 | 250904_788308_16656907_1307 | 788308 | (not set) | (not set) | 39.002662442723 | -78.287677948062 | 54.1429 | 2025-09-04 14:03:01 | in_vehicle | 100 | 14.247141183939 | |
| 71548 | 250904_788308_16656907_1307 | 788308 | (not set) | (not set) | 38.994605936432 | -78.254496497256 | 56.0186 | 2025-09-04 14:04:37 | in_vehicle | 100 | 13.706223680564 | |
| 71549 | 250904_768390_16635354_1401 | 768390 | (not set) | (not set) | 38.835696181424 | -77.119205983902 | 0.6282 | 2025-09-04 14:06:23 | in_vehicle | 100 | 2.7358802650049 | |
| 71550 | 250904_788308_16656907_1307 | 788308 | (not set) | (not set) | 38.965226099728 | -78.199975540369 | 59.591 | 2025-09-04 14:07:42 | in_vehicle | 100 | 14.323137857967 | |
| 71551 | 250904_616654_16456749_1309 | 616654 | (not set) | (not set) | 38.782038520791 | -77.37574195472 | 25.6074 | 2025-09-04 14:09:07 | in_vehicle | 100 | 9.6828703496741 | |
| 71552 | 250904_616654_16456749_1309 | 616654 | (not set) | (not set) | 38.778021882632 | -77.398179733125 | 26.9081 | 2025-09-04 14:10:50 | in_vehicle | 100 | 8.2970486468122 | |
| 71553 | 250904_788494_16657130_1412 | 788494 | (not set) | (not set) | 38.915228383023 | -76.999071618211 | 0 | 2025-09-04 14:12:07 | unknown | 100 | 12.785322807049 | |
| 71554 | 250904_768390_16635354_1401 | 768390 | (not set) | (not set) | 38.833870761798 | -77.136199077621 | 1.8853 | 2025-09-04 14:12:49 | in_vehicle | 100 | 2.440834354073 | |
| 71555 | 250904_788494_16657130_1412 | 788494 | (not set) | (not set) | 38.902837563185 | -77.004841938668 | 0.9119 | 2025-09-04 14:14:16 | in_vehicle | 100 | 6.6742961366867 | |
| 71556 | 250904_788308_16656907_1307 | 788308 | (not set) | (not set) | 38.910078810318 | -78.050527747798 | 69.2836 | 2025-09-04 14:16:09 | in_vehicle | 100 | 15.744722701548 | |
| 71557 | 250904_616654_16456749_1309 | 616654 | (not set) | (not set) | 38.764220270369 | -77.434414360349 | 30.4047 | 2025-09-04 14:18:25 | in_vehicle | 100 | 5.7623360483518 | |
| 71558 | 250904_788308_16656907_1307 | 788308 | (not set) | (not set) | 38.908053943587 | -77.958597435248 | 74.2963 | 2025-09-04 14:20:13 | in_vehicle | 100 | 13.674930932434 | |
| 71559 | 250904_788308_16656907_1307 | 788308 | (not set) | (not set) | 38.878079093998 | -77.904573219321 | 78.2298 | 2025-09-04 14:23:40 | in_vehicle | 100 | 12.798733984819 | |
| 71560 | 250904_788308_16656907_1307 | 788308 | (not set) | (not set) | 38.853032102742 | -77.83696874466 | 82.4175 | 2025-09-04 14:27:35 | in_vehicle | 100 | 9.615814460826 |